Time;durP1;ratioP1;P1;durP2;ratioP2;P2;SDS_P1;SDS_P2;PMS_P1;PMS_P2;Temp;Humidity;BMP_temperature;BMP_pressure;BME280_temperature;BME280_humidity;BME280_pressure;Samples;Min_cycle;Max_cycle;Signal;HPM_P1;HPM_P2
2023/07/28 00:01:51;;;;;;;16.88;10.93;;;17.90;99.90;;;;;;5020756;28;20055;-84
2023/07/28 00:04:16;;;;;;;21.30;10.60;;;18.10;99.90;;;;;;5022172;28;20493;-84
2023/07/28 00:06:42;;;;;;;18.63;10.35;;;18.10;99.90;;;;;;5045032;28;20041;-84
2023/07/28 00:09:08;;;;;;;20.67;11.13;;;18.20;99.90;;;;;;5061188;28;20068;-84
2023/07/28 00:11:39;;;;;;;20.23;11.23;;;18.10;99.90;;;;;;5028148;28;20509;-83
2023/07/28 00:14:05;;;;;;;16.25;10.43;;;18.30;99.90;;;;;;5028546;28;20037;-84
2023/07/28 00:16:31;;;;;;;17.98;10.63;;;18.10;99.90;;;;;;5030512;28;20034;-84
2023/07/28 00:18:56;;;;;;;19.63;11.13;;;18.10;99.90;;;;;;5037243;28;20044;-84
2023/07/28 00:21:22;;;;;;;19.17;11.48;;;18.10;99.90;;;;;;5035327;28;20044;-85
2023/07/28 00:23:57;;;;;;;22.42;12.07;;;18.00;99.90;;;;;;5024040;28;20040;-84
2023/07/28 00:26:22;;;;;;;23.92;12.18;;;18.30;99.90;;;;;;5035375;28;20039;-84
2023/07/28 00:28:48;;;;;;;21.50;11.88;;;18.20;99.90;;;;;;5057881;28;20021;-84
2023/07/28 00:31:13;;;;;;;23.60;13.30;;;18.00;99.90;;;;;;5041614;28;20051;-84
2023/07/28 00:33:45;;;;;;;26.10;13.55;;;18.20;99.90;;;;;;5053890;28;20045;-84
2023/07/28 00:36:11;;;;;;;22.75;12.45;;;18.10;99.90;;;;;;5037567;28;20484;-85
2023/07/28 00:38:36;;;;;;;16.80;12.23;;;18.20;99.90;;;;;;5040254;28;20083;-84
2023/07/28 00:41:02;;;;;;;21.08;12.63;;;18.60;99.90;;;;;;5017764;28;20101;-84
2023/07/28 00:43:28;;;;;;;17.50;12.18;;;18.10;99.90;;;;;;5049030;28;20032;-84
2023/07/28 00:45:59;;;;;;;24.00;11.88;;;18.40;99.90;;;;;;5024883;28;20112;-84
2023/07/28 00:48:28;;;;;;;17.10;11.20;;;18.10;99.90;;;;;;5033279;28;20415;-84
2023/07/28 00:50:54;;;;;;;22.40;11.45;;;18.10;99.90;;;;;;5039717;28;20044;-85
2023/07/28 00:53:21;;;;;;;21.17;11.35;;;18.50;99.90;;;;;;5033849;28;20033;-84
2023/07/28 00:55:46;;;;;;;25.88;11.98;;;18.10;99.90;;;;;;5058527;28;20037;-84
2023/07/28 00:58:12;;;;;;;18.08;11.77;;;18.10;99.90;;;;;;5037539;28;20127;-85
2023/07/28 01:00:40;;;;;;;21.67;12.40;;;18.50;99.90;;;;;;5024198;28;20048;-84
2023/07/28 01:03:06;;;;;;;22.15;12.93;;;18.10;99.90;;;;;;5052624;28;20028;-85
2023/07/28 01:05:55;;;;;;;25.55;13.40;;;18.10;99.90;;;;;;5032710;28;20044;-85
2023/07/28 01:08:48;;;;;;;22.73;12.98;;;18.10;99.90;;;;;;5032888;28;20484;-84
2023/07/28 01:11:14;;;;;;;21.08;12.98;;;18.10;99.90;;;;;;5041854;28;20162;-85
2023/07/28 01:13:40;;;;;;;22.60;13.75;;;18.10;99.90;;;;;;5015800;28;20699;-84
2023/07/28 01:16:07;;;;;;;25.60;14.35;;;18.10;99.90;;;;;;5020059;28;20084;-84
2023/07/28 01:18:33;;;;;;;28.00;14.00;;;18.10;99.90;;;;;;5051894;28;20080;-85
2023/07/28 01:21:00;;;;;;;26.70;14.40;;;18.10;99.90;;;;;;5036650;28;20060;-84
2023/07/28 01:23:51;;;;;;;28.20;14.15;;;18.10;99.90;;;;;;5013174;28;20080;-84
2023/07/28 01:26:25;;;;;;;22.67;13.65;;;18.10;99.90;;;;;;5014194;28;20044;-85
2023/07/28 01:28:51;;;;;;;24.48;13.80;;;18.10;99.90;;;;;;5023335;28;20038;-84
2023/07/28 01:31:17;;;;;;;20.70;13.70;;;18.20;99.90;;;;;;5021765;28;20124;-84
2023/07/28 01:33:43;;;;;;;27.20;14.60;;;18.10;99.90;;;;;;5039080;28;20823;-84
2023/07/28 01:36:08;;;;;;;29.35;14.68;;;18.10;99.90;;;;;;5054320;28;20385;-84
2023/07/28 01:38:34;;;;;;;21.05;13.85;;;18.10;99.90;;;;;;5054038;28;20040;-84
2023/07/28 01:41:00;;;;;;;28.00;14.68;;;18.30;99.90;;;;;;5040647;28;20583;-84
2023/07/28 01:43:25;;;;;;;26.73;15.55;;;18.10;99.90;;;;;;5036941;28;20531;-85
2023/07/28 01:45:53;;;;;;;25.20;15.98;;;18.10;99.90;;;;;;5036130;28;20043;-84
2023/07/28 01:48:19;;;;;;;33.38;16.63;;;18.10;99.90;;;;;;5020043;28;20033;-84
2023/07/28 01:50:45;;;;;;;28.67;17.55;;;18.30;99.90;;;;;;5021275;28;20063;-84
2023/07/28 01:53:11;;;;;;;31.73;16.02;;;18.10;99.90;;;;;;5002807;28;20510;-86
2023/07/28 01:55:36;;;;;;;27.10;16.58;;;18.20;99.90;;;;;;5057801;28;20058;-84
2023/07/28 01:58:05;;;;;;;37.72;16.73;;;18.40;99.90;;;;;;5021737;28;20467;-85
2023/07/28 02:00:31;;;;;;;33.55;18.20;;;18.30;99.90;;;;;;5045048;28;20688;-85
2023/07/28 02:02:58;;;;;;;28.80;15.65;;;18.10;99.90;;;;;;5041181;28;20044;-84
2023/07/28 02:05:26;;;;;;;28.98;15.63;;;18.20;99.90;;;;;;5040895;28;20064;-84
2023/07/28 02:07:52;;;;;;;29.15;15.32;;;18.10;99.90;;;;;;5022013;28;20561;-84
2023/07/28 02:10:18;;;;;;;34.75;16.83;;;18.10;99.90;;;;;;5022064;28;20032;-84
2023/07/28 02:12:44;;;;;;;31.90;15.95;;;18.10;99.90;;;;;;5031882;28;20470;-84
2023/07/28 02:15:10;;;;;;;31.48;14.00;;;18.10;99.90;;;;;;5033499;28;20520;-84
2023/07/28 02:17:35;;;;;;;25.15;13.68;;;18.20;99.90;;;;;;5038640;28;20033;-84
2023/07/28 02:20:05;;;;;;;30.42;13.45;;;18.10;99.90;;;;;;5021617;28;20556;-84
2023/07/28 02:22:30;;;;;;;22.33;12.70;;;18.10;99.90;;;;;;5021148;28;20656;-84
2023/07/28 02:24:56;;;;;;;26.88;13.40;;;18.30;99.90;;;;;;5035510;28;20037;-84
2023/07/28 02:27:22;;;;;;;19.40;11.70;;;18.10;99.90;;;;;;5019229;28;20041;-84
2023/07/28 02:29:47;;;;;;;21.20;11.80;;;18.10;99.90;;;;;;5023536;28;20033;-84
2023/07/28 02:32:13;;;;;;;23.25;12.32;;;18.50;99.90;;;;;;5037922;28;20040;-84
2023/07/28 02:34:39;;;;;;;26.00;12.43;;;18.10;99.90;;;;;;5028930;28;20484;-84
2023/07/28 02:37:04;;;;;;;23.30;11.88;;;18.50;99.90;;;;;;5024751;28;20044;-84
2023/07/28 02:39:30;;;;;;;31.70;13.77;;;18.10;99.90;;;;;;5035038;28;20029;-84
2023/07/28 02:41:56;;;;;;;25.92;13.30;;;18.10;99.90;;;;;;5025223;28;20098;-85
2023/07/28 02:44:21;;;;;;;28.60;12.32;;;18.50;99.90;;;;;;5020805;28;20040;-84
2023/07/28 02:46:47;;;;;;;31.55;12.70;;;18.20;99.90;;;;;;5051954;28;20088;-84
2023/07/28 02:49:12;;;;;;;20.17;11.00;;;18.60;99.90;;;;;;5037242;28;20753;-85
2023/07/28 02:51:39;;;;;;;26.38;13.65;;;18.40;99.90;;;;;;5043815;28;20036;-85
2023/07/28 02:54:04;;;;;;;24.40;11.38;;;18.40;99.90;;;;;;5050766;28;20049;-84
2023/07/28 02:56:34;;;;;;;22.90;12.30;;;18.50;99.90;;;;;;5014545;28;20048;-85
2023/07/28 02:59:03;;;;;;;22.55;12.18;;;18.10;99.90;;;;;;5011631;28;20048;-84
2023/07/28 03:01:33;;;;;;;25.05;12.13;;;18.10;99.90;;;;;;5055637;28;20064;-84
2023/07/28 03:04:00;;;;;;;19.08;11.25;;;18.10;99.90;;;;;;5050184;28;20044;-84
2023/07/28 03:06:28;;;;;;;24.70;13.02;;;18.10;99.90;;;;;;5054639;28;20047;-84
2023/07/28 03:08:53;;;;;;;24.67;11.75;;;18.50;99.90;;;;;;5019258;28;20042;-84
2023/07/28 03:11:19;;;;;;;20.67;11.98;;;18.10;99.90;;;;;;5014959;28;20040;-84
2023/07/28 03:13:45;;;;;;;24.10;13.20;;;18.10;99.90;;;;;;5019767;28;20380;-84
2023/07/28 03:16:13;;;;;;;22.35;12.52;;;18.00;99.90;;;;;;5019587;28;20098;-85
2023/07/28 03:18:39;;;;;;;26.65;13.45;;;18.10;99.90;;;;;;5037393;28;20068;-85
2023/07/28 03:21:05;;;;;;;20.00;12.52;;;18.10;99.90;;;;;;5020146;28;20075;-85
2023/07/28 03:23:30;;;;;;;30.42;13.50;;;18.10;99.90;;;;;;5022600;28;20041;-84
2023/07/28 03:25:56;;;;;;;25.98;12.88;;;18.10;99.90;;;;;;5040743;28;20068;-84
2023/07/28 03:28:21;;;;;;;24.98;13.68;;;18.00;99.90;;;;;;5023024;28;20056;-84
2023/07/28 03:30:47;;;;;;;22.67;13.52;;;18.60;99.90;;;;;;5023855;28;20053;-84
2023/07/28 03:33:12;;;;;;;26.67;13.27;;;18.00;99.90;;;;;;5026906;28;20044;-84
2023/07/28 03:35:38;;;;;;;25.67;14.13;;;18.10;99.90;;;;;;5026610;28;20043;-84
2023/07/28 03:38:04;;;;;;;25.55;14.10;;;18.10;99.90;;;;;;5062552;28;20036;-84
2023/07/28 03:40:29;;;;;;;29.27;14.95;;;18.60;99.90;;;;;;5022931;28;20036;-85
2023/07/28 03:42:57;;;;;;;25.33;14.50;;;18.00;99.90;;;;;;5017078;28;20048;-85
2023/07/28 03:45:22;;;;;;;26.13;13.82;;;18.00;99.90;;;;;;5020750;28;20044;-84
2023/07/28 03:47:48;;;;;;;25.38;14.73;;;18.10;99.90;;;;;;5052217;28;20481;-84
2023/07/28 03:50:14;;;;;;;29.80;15.27;;;18.10;99.90;;;;;;5027973;28;20046;-84
2023/07/28 03:52:39;;;;;;;24.70;14.40;;;18.10;99.90;;;;;;5020093;28;20060;-84
2023/07/28 03:55:05;;;;;;;27.42;14.32;;;18.10;99.90;;;;;;5037491;28;20048;-85
2023/07/28 03:57:31;;;;;;;31.30;14.57;;;18.10;99.90;;;;;;5024498;28;20040;-85
2023/07/28 03:59:56;;;;;;;19.38;13.63;;;18.00;99.90;;;;;;5024664;28;20099;-85
2023/07/28 04:02:22;;;;;;;24.75;13.07;;;18.20;99.90;;;;;;5026854;28;20071;-84
2023/07/28 04:04:54;;;;;;;24.10;14.70;;;18.30;99.90;;;;;;5020365;28;20044;-84
2023/07/28 04:07:19;;;;;;;25.65;13.50;;;18.10;99.90;;;;;;5042739;28;20032;-84
2023/07/28 04:09:45;;;;;;;26.98;13.57;;;18.10;99.90;;;;;;5029672;28;20037;-85
2023/07/28 04:12:10;;;;;;;32.50;15.50;;;18.80;99.90;;;;;;5016616;28;20049;-84
2023/07/28 04:14:36;;;;;;;25.15;14.02;;;18.10;99.90;;;;;;5038674;28;20036;-85
2023/07/28 04:17:02;;;;;;;24.15;14.00;;;18.10;99.90;;;;;;5042365;28;20045;-84
2023/07/28 04:19:29;;;;;;;26.55;14.93;;;18.10;99.90;;;;;;5023567;28;20037;-84
2023/07/28 04:21:56;;;;;;;31.15;15.60;;;18.20;99.90;;;;;;5033978;28;20056;-84
2023/07/28 04:24:21;;;;;;;28.05;14.15;;;18.10;99.90;;;;;;5055395;28;20243;-84
2023/07/28 04:26:50;;;;;;;20.77;13.32;;;18.30;99.90;;;;;;5060791;28;20491;-84
2023/07/28 04:29:16;;;;;;;21.90;13.00;;;18.30;99.90;;;;;;5059784;28;20108;-84
2023/07/28 04:31:42;;;;;;;25.77;13.77;;;18.20;99.90;;;;;;5021531;28;20191;-85
2023/07/28 04:34:07;;;;;;;27.75;13.65;;;18.20;99.90;;;;;;5034558;28;20404;-85
2023/07/28 04:36:33;;;;;;;25.02;13.88;;;18.30;99.90;;;;;;5055278;28;20067;-84
2023/07/28 04:39:00;;;;;;;24.45;12.35;;;18.20;99.90;;;;;;5029457;28;20051;-84
2023/07/28 04:41:25;;;;;;;26.33;13.55;;;18.20;99.90;;;;;;5039397;28;20041;-84
2023/07/28 04:43:53;;;;;;;30.40;13.35;;;18.40;99.90;;;;;;5024607;28;20039;-84
2023/07/28 04:46:18;;;;;;;22.20;13.15;;;18.20;99.90;;;;;;5043720;28;20039;-84
2023/07/28 04:48:50;;;;;;;26.33;12.85;;;18.20;99.90;;;;;;5015073;28;20037;-84
2023/07/28 04:51:16;;;;;;;24.38;12.38;;;18.20;99.90;;;;;;5017272;28;20098;-86
2023/07/28 04:53:42;;;;;;;20.42;12.80;;;18.20;99.90;;;;;;5022681;28;20697;-84
2023/07/28 04:56:10;;;;;;;25.08;12.38;;;18.30;99.90;;;;;;5058144;28;20468;-84
2023/07/28 04:58:36;;;;;;;22.33;11.48;;;18.20;99.90;;;;;;5038128;28;20032;-84
2023/07/28 05:01:02;;;;;;;26.02;12.40;;;18.20;99.90;;;;;;5037258;28;20044;-84
2023/07/28 05:03:28;;;;;;;27.27;13.27;;;18.30;99.90;;;;;;5037169;28;20095;-84
2023/07/28 05:05:56;;;;;;;36.67;13.95;;;18.40;99.90;;;;;;5023082;28;20414;-84
2023/07/28 05:08:22;;;;;;;22.95;12.60;;;18.30;99.90;;;;;;5033815;28;20037;-84
2023/07/28 05:10:48;;;;;;;19.35;12.15;;;18.20;99.90;;;;;;5034361;28;20044;-84
2023/07/28 05:13:13;;;;;;;29.98;12.25;;;18.20;99.90;;;;;;5037850;28;20451;-84
2023/07/28 05:15:39;;;;;;;24.33;12.55;;;18.20;99.90;;;;;;5048063;28;20412;-83
2023/07/28 05:18:13;;;;;;;20.80;11.00;;;18.20;99.90;;;;;;5039523;28;20502;-83
2023/07/28 05:20:38;;;;;;;23.38;12.60;;;18.30;99.90;;;;;;5035060;28;20665;-83
2023/07/28 05:23:04;;;;;;;20.27;14.05;;;18.30;99.90;;;;;;5063347;28;20037;-84
2023/07/28 05:25:30;;;;;;;33.60;12.98;;;18.70;99.90;;;;;;5018746;28;20033;-83
2023/07/28 05:27:56;;;;;;;22.98;13.02;;;18.30;99.90;;;;;;5018076;28;20539;-84
2023/07/28 05:30:24;;;;;;;26.63;12.25;;;18.50;99.90;;;;;;5020787;28;20041;-84
2023/07/28 05:33:15;;;;;;;24.88;11.57;;;18.30;99.90;;;;;;5038797;28;20533;-83
2023/07/28 05:36:07;;;;;;;24.27;10.93;;;18.30;99.90;;;;;;5048854;28;20043;-84
2023/07/28 05:39:49;;;;;;;18.90;10.27;;;18.40;99.90;;;;;;4943331;28;20211;-83
2023/07/28 05:49:45;;;;;;;23.15;11.30;;;18.10;99.90;;;;;;4924819;29;20126;-84
2023/07/28 05:52:46;;;;;;;23.65;11.77;;;18.50;99.90;;;;;;4986238;23;20842;-82
2023/07/28 05:55:18;;;;;;;22.53;11.10;;;18.50;99.90;;;;;;5044477;28;20040;-83
2023/07/28 05:58:28;;;;;;;20.90;10.90;;;18.70;99.90;;;;;;4989350;28;20473;-83
2023/07/28 06:00:54;;;;;;;19.92;11.40;;;18.50;99.90;;;;;;4929022;28;20047;-84
2023/07/28 06:03:38;;;;;;;20.95;10.70;;;18.70;99.90;;;;;;4965140;28;20136;-83
2023/07/28 06:09:54;;;;;;;16.98;10.40;;;18.80;99.90;;;;;;4964938;28;20105;-84
2023/07/28 06:12:25;;;;;;;24.38;11.95;;;18.90;99.90;;;;;;4975672;28;20080;-84
2023/07/28 06:14:56;;;;;;;21.83;10.43;;;18.90;99.90;;;;;;4989724;28;20058;-83
2023/07/28 06:18:16;;;;;;;22.27;9.18;;;19.20;99.90;;;;;;4952313;28;20130;-84
2023/07/28 06:20:48;;;;;;;21.85;10.05;;;19.00;99.90;;;;;;4992881;28;20055;-84
2023/07/28 06:28:57;;;;;;;17.90;8.85;;;19.10;99.90;;;;;;4974632;28;20654;-84
2023/07/28 06:32:01;;;;;;;15.40;7.65;;;19.20;99.90;;;;;;4925075;28;20074;-84
2023/07/28 06:34:42;;;;;;;15.70;7.75;;;19.20;99.90;;;;;;5012079;28;20499;-84
2023/07/28 06:37:53;;;;;;;15.40;8.40;;;19.00;99.90;;;;;;5020287;28;20037;-84
2023/07/28 06:40:21;;;;;;;11.32;7.05;;;19.00;99.90;;;;;;5009093;28;20128;-84
2023/07/28 06:42:53;;;;;;;13.00;8.05;;;19.00;99.90;;;;;;5011914;28;20088;-84
2023/07/28 06:45:27;;;;;;;14.82;7.53;;;19.00;99.90;;;;;;4997338;28;20049;-84
2023/07/28 06:48:01;;;;;;;14.38;6.93;;;19.10;99.90;;;;;;4988532;28;20033;-84
2023/07/28 06:51:11;;;;;;;13.45;5.95;;;19.10;99.90;;;;;;5025356;28;20034;-84
2023/07/28 06:54:31;;;;;;;11.15;5.90;;;19.00;99.90;;;;;;4987058;28;20099;-84
2023/07/28 06:56:57;;;;;;;9.38;6.18;;;19.40;99.90;;;;;;5022848;28;20045;-84
2023/07/28 06:59:41;;;;;;;9.90;5.18;;;19.00;99.90;;;;;;5031071;28;20029;-84
2023/07/28 07:02:22;;;;;;;10.48;5.13;;;19.20;99.90;;;;;;4983067;28;20420;-85
2023/07/28 07:04:47;;;;;;;7.07;4.82;;;19.30;99.90;;;;;;4994920;28;20103;-84
2023/07/28 07:07:13;;;;;;;7.18;4.25;;;19.70;99.90;;;;;;5009276;28;20037;-84
2023/07/28 07:09:40;;;;;;;11.93;4.78;;;19.50;99.90;;;;;;4995285;28;20037;-84
2023/07/28 07:12:08;;;;;;;7.82;4.72;;;19.60;99.90;;;;;;4987733;28;20046;-84
2023/07/28 07:15:07;;;;;;;9.70;5.03;;;20.40;99.90;;;;;;5012089;28;20048;-84
2023/07/28 07:17:54;;;;;;;12.20;4.47;;;20.50;99.90;;;;;;5025601;28;20045;-84
2023/07/28 07:20:26;;;;;;;10.23;4.43;;;20.30;99.90;;;;;;5006807;28;20052;-84
2023/07/28 07:22:57;;;;;;;10.30;4.25;;;20.20;99.90;;;;;;5008562;28;20503;-84
2023/07/28 07:26:53;;;;;;;;;;;;;;;;;;;;;
2023/07/28 07:29:57;;;;;;;7.25;3.60;;;20.40;99.90;;;;;;4924314;29;20127;-85
2023/07/28 07:41:23;;;;;;;7.22;2.90;;;21.70;99.90;;;;;;5048448;28;20055;-83
2023/07/28 07:43:59;;;;;;;5.35;3.10;;;22.30;99.90;;;;;;5025317;28;20045;-84
2023/07/28 07:46:27;;;;;;;5.15;2.42;;;22.50;99.90;;;;;;5011837;28;20037;-84
2023/07/28 07:48:53;;;;;;;5.57;2.58;;;22.70;99.90;;;;;;5031055;28;20089;-84
2023/07/28 07:51:18;;;;;;;8.65;3.58;;;22.90;99.90;;;;;;5039337;28;20053;-85
2023/07/28 07:53:45;;;;;;;6.70;2.70;;;23.10;99.90;;;;;;5049410;28;20045;-82
2023/07/28 07:56:11;;;;;;;5.57;2.65;;;23.20;99.90;;;;;;5046092;28;20434;-84
2023/07/28 07:58:37;;;;;;;7.50;3.58;;;23.20;99.90;;;;;;5026606;28;20033;-84
2023/07/28 08:01:33;;;;;;;11.43;2.75;;;23.40;99.90;;;;;;5030802;28;20483;-85
2023/07/28 08:08:16;;;;;;;6.82;2.67;;;23.70;99.90;;;;;;5018755;28;20041;-84
2023/07/28 08:10:47;;;;;;;6.18;2.60;;;23.40;99.90;;;;;;5047532;28;20036;-84
2023/07/28 08:13:45;;;;;;;6.40;3.03;;;23.20;99.90;;;;;;5030759;28;20056;-84
2023/07/28 08:16:32;;;;;;;9.02;3.00;;;23.00;99.90;;;;;;5008909;28;20107;-84
2023/07/28 08:19:00;;;;;;;6.45;2.40;;;22.70;99.90;;;;;;5016525;28;20115;-85
2023/07/28 08:21:36;;;;;;;;;;;;;;;;;;;;;
2023/07/28 08:24:03;;;;;;;6.00;3.10;;;22.50;99.90;;;;;;5029487;28;20049;-85
2023/07/28 08:26:30;;;;;;;6.70;3.20;;;22.90;99.90;;;;;;5049304;28;20044;-84
2023/07/28 08:28:59;;;;;;;5.55;2.42;;;23.20;99.90;;;;;;5034395;28;20029;-85
2023/07/28 08:31:27;;;;;;;4.72;2.85;;;23.40;99.90;;;;;;5026938;28;20055;-85
2023/07/28 08:34:37;;;;;;;5.05;3.15;;;23.80;99.90;;;;;;5023584;28;20453;-85
2023/07/28 08:37:21;;;;;;;5.68;2.63;;;23.50;99.90;;;;;;5035407;28;20048;-85
2023/07/28 08:39:50;;;;;;;5.97;2.78;;;23.30;99.90;;;;;;5054666;28;20040;-84
2023/07/28 08:42:26;;;;;;;;;;;;;;;;;;;;;
2023/07/28 08:44:57;;;;;;;5.50;2.92;;;23.10;99.90;;;;;;5025529;28;20121;-84
2023/07/28 08:47:24;;;;;;;7.05;2.80;;;22.50;99.90;;;;;;5031952;28;20430;-84
2023/07/28 08:50:26;;;;;;;6.80;3.22;;;22.70;99.90;;;;;;5049607;28;20041;-83
2023/07/28 08:53:33;;;;;;;7.00;3.03;;;22.20;99.90;;;;;;5008986;28;20408;-82
2023/07/28 09:05:08;;;;;;;;;;;;;;;;;;;;;
2023/07/28 09:26:56;;;;;;;;;;;;;;;;;;;;;
2023/07/28 09:29:33;;;;;;;5.05;1.50;;;22.10;99.90;;;;;;5063973;28;20048;-86
2023/07/28 09:32:11;;;;;;;5.65;1.52;;;22.40;99.90;;;;;;5065808;28;20333;-83
2023/07/28 09:34:41;;;;;;;6.65;2.55;;;22.50;99.90;;;;;;5049117;28;20043;-84
2023/07/28 09:44:11;;;;;;;3.65;2.15;;;22.60;99.90;;;;;;5080275;28;20075;-85
2023/07/28 09:46:57;;;;;;;4.95;1.73;;;22.80;99.90;;;;;;5064523;28;20039;-84
2023/07/28 09:49:38;;;;;;;5.43;1.45;;;22.90;99.90;;;;;;5046662;28;20035;-84
2023/07/28 09:52:35;;;;;;;3.47;1.83;;;23.00;99.90;;;;;;5067746;28;20064;-84
2023/07/28 09:55:11;;;;;;;3.63;1.13;;;23.20;99.90;;;;;;5064039;28;20048;-84
2023/07/28 09:57:49;;;;;;;5.57;1.90;;;23.20;99.90;;;;;;5051249;28;20486;-83
2023/07/28 10:00:29;;;;;;;6.95;2.38;;;23.20;99.90;;;;;;5082374;28;20036;-84
2023/07/28 10:02:57;;;;;;;3.80;1.90;;;23.20;99.90;;;;;;5049562;28;20162;-84
2023/07/28 10:05:24;;;;;;;3.55;1.67;;;23.20;99.90;;;;;;5048901;28;20032;-83
2023/07/28 10:07:59;;;;;;;3.17;1.65;;;23.20;99.90;;;;;;5049063;28;20033;-83
2023/07/28 10:10:31;;;;;;;3.50;1.70;;;23.40;99.90;;;;;;5070451;28;20071;-84
2023/07/28 10:12:59;;;;;;;4.38;1.42;;;23.00;99.90;;;;;;5079739;28;20047;-84
2023/07/28 10:15:50;;;;;;;5.28;1.83;;;22.90;99.90;;;;;;5088547;28;20039;-84
2023/07/28 10:18:39;;;;;;;3.20;1.95;;;22.90;99.90;;;;;;5047986;28;20048;-84
2023/07/28 10:21:58;;;;;;;5.13;2.22;;;23.10;99.90;;;;;;5067606;28;20048;-84
2023/07/28 10:25:38;;;;;;;4.85;1.90;;;23.00;99.90;;;;;;5063088;28;20040;-85
2023/07/28 10:28:07;;;;;;;4.18;1.38;;;23.20;99.90;;;;;;4975442;28;20052;-84
2023/07/28 10:30:58;;;;;;;5.03;1.63;;;23.40;99.90;;;;;;4988513;28;20100;-84
2023/07/28 10:33:50;;;;;;;2.25;1.67;;;23.50;99.90;;;;;;5035070;28;20090;-83
2023/07/28 10:36:32;;;;;;;4.53;1.70;;;23.70;99.90;;;;;;5064131;28;20055;-82
2023/07/28 10:39:03;;;;;;;3.80;1.77;;;24.00;99.90;;;;;;5076285;28;20440;-83
2023/07/28 10:41:42;;;;;;;3.47;2.10;;;24.30;99.90;;;;;;5078747;28;20074;-84
2023/07/28 10:44:08;;;;;;;4.47;2.05;;;23.90;99.90;;;;;;5035722;28;20085;-84
2023/07/28 10:46:54;;;;;;;3.55;1.98;;;23.90;99.90;;;;;;5072932;28;20040;-85
2023/07/28 10:49:33;;;;;;;3.90;2.13;;;24.00;99.90;;;;;;5065220;28;20518;-84
2023/07/28 10:51:59;;;;;;;4.55;2.35;;;24.20;99.90;;;;;;5048943;28;20142;-85
2023/07/28 10:54:27;;;;;;;4.55;2.80;;;24.30;99.90;;;;;;5086147;28;20119;-84
2023/07/28 10:57:16;;;;;;;8.45;2.67;;;24.10;99.90;;;;;;5067108;28;20444;-84
2023/07/28 10:59:42;;;;;;;4.07;2.30;;;24.40;99.90;;;;;;5065143;28;20047;-84
2023/07/28 11:02:16;;;;;;;2.90;2.50;;;24.30;99.90;;;;;;5052292;28;20060;-83
2023/07/28 11:04:47;;;;;;;7.25;3.30;;;24.30;99.90;;;;;;5052446;28;20123;-84
2023/07/28 11:07:13;;;;;;;4.40;2.90;;;24.40;99.90;;;;;;5059463;28;20151;-84
2023/07/28 11:09:39;;;;;;;5.40;3.35;;;24.70;99.90;;;;;;5074211;28;20090;-85
2023/07/28 11:12:10;;;;;;;4.85;2.35;;;24.70;99.90;;;;;;5056661;28;20506;-84
2023/07/28 11:14:39;;;;;;;10.05;2.72;;;24.70;99.90;;;;;;5089612;28;20047;-83
2023/07/28 11:17:05;;;;;;;3.33;2.88;;;24.60;99.90;;;;;;5067439;28;20043;-84
2023/07/28 11:19:33;;;;;;;6.90;3.28;;;24.70;99.90;;;;;;5075575;28;20048;-83
2023/07/28 11:21:59;;;;;;;7.63;4.03;;;24.20;99.90;;;;;;5057017;28;20049;-85
2023/07/28 11:24:26;;;;;;;11.30;3.72;;;23.80;99.90;;;;;;5071176;28;20488;-84
2023/07/28 11:26:52;;;;;;;8.27;4.68;;;23.70;99.90;;;;;;5072438;28;20043;-83
2023/07/28 11:29:23;;;;;;;6.82;4.15;;;23.40;99.90;;;;;;5088024;28;20028;-84
2023/07/28 11:31:50;;;;;;;7.78;5.57;;;23.30;99.90;;;;;;5075204;28;20042;-84
2023/07/28 11:34:19;;;;;;;8.30;5.55;;;23.60;99.90;;;;;;5071229;28;20055;-84
2023/07/28 11:36:48;;;;;;;9.18;5.30;;;23.60;99.90;;;;;;5065722;28;20126;-84
2023/07/28 11:39:17;;;;;;;7.45;5.47;;;23.80;99.90;;;;;;5071477;28;20067;-84
2023/07/28 11:41:48;;;;;;;6.72;5.90;;;24.00;99.90;;;;;;5066395;28;20040;-84
2023/07/28 11:44:15;;;;;;;9.50;6.93;;;24.20;99.90;;;;;;5084986;28;20070;-82
2023/07/28 11:46:55;;;;;;;6.78;5.72;;;24.30;99.90;;;;;;5066173;28;20048;-83
2023/07/28 11:49:47;;;;;;;5.90;4.82;;;24.50;99.90;;;;;;5041149;28;20040;-83
2023/07/28 11:52:13;;;;;;;13.93;5.45;;;24.70;99.90;;;;;;5052564;28;20074;-83
2023/07/28 11:54:38;;;;;;;8.15;5.10;;;24.70;99.90;;;;;;5072656;28;20041;-82
2023/07/28 11:57:08;;;;;;;6.03;4.13;;;24.70;99.90;;;;;;5068177;28;20047;-83
2023/07/28 11:59:35;;;;;;;9.52;5.40;;;24.80;99.90;;;;;;5068437;28;20048;-82
2023/07/28 12:02:04;;;;;;;7.13;4.55;;;24.80;99.90;;;;;;5055786;28;20055;-83
2023/07/28 12:04:54;;;;;;;7.25;4.03;;;24.70;99.90;;;;;;5051895;28;20032;-82
2023/07/28 12:07:33;;;;;;;8.70;5.15;;;24.50;99.90;;;;;;5055669;28;20270;-83
2023/07/28 12:10:11;;;;;;;10.23;4.88;;;24.60;99.90;;;;;;5074131;28;20033;-84
2023/07/28 12:12:52;;;;;;;7.97;4.32;;;24.80;99.90;;;;;;5070881;28;20082;-82
2023/07/28 12:15:23;;;;;;;8.75;4.35;;;25.00;99.90;;;;;;5070508;28;20051;-83
2023/07/28 12:18:14;;;;;;;5.80;3.60;;;25.00;99.90;;;;;;5071986;28;20062;-82
2023/07/28 12:20:47;;;;;;;5.65;4.10;;;25.10;99.90;;;;;;5051797;28;20032;-83
2023/07/28 12:23:24;;;;;;;6.18;4.32;;;25.20;99.90;;;;;;5054288;28;20036;-83
2023/07/28 12:25:50;;;;;;;5.25;3.42;;;25.10;99.90;;;;;;5070149;28;20068;-82
2023/07/28 12:28:16;;;;;;;5.85;3.83;;;25.20;99.90;;;;;;5052181;28;20051;-83
2023/07/28 12:30:43;;;;;;;8.23;4.20;;;25.10;99.90;;;;;;5068766;28;20029;-83
2023/07/28 12:33:09;;;;;;;4.88;3.63;;;24.80;99.90;;;;;;5071516;28;20123;-83
2023/07/28 12:35:34;;;;;;;12.45;4.47;;;24.60;99.90;;;;;;5094166;28;20028;-83
2023/07/28 12:38:23;;;;;;;6.95;4.82;;;24.40;99.90;;;;;;5073973;28;20040;-83
2023/07/28 12:40:48;;;;;;;6.50;4.40;;;24.50;99.90;;;;;;5087346;28;20024;-83
2023/07/28 12:43:14;;;;;;;5.75;4.15;;;24.50;99.90;;;;;;5092507;28;20087;-83
2023/07/28 12:45:40;;;;;;;4.68;3.85;;;24.60;99.90;;;;;;5056327;28;20074;-83
2023/07/28 12:48:05;;;;;;;4.32;3.63;;;24.70;99.90;;;;;;5087913;28;20052;-82
2023/07/28 12:50:31;;;;;;;5.75;3.60;;;24.80;99.90;;;;;;5069124;28;20075;-83
2023/07/28 12:52:57;;;;;;;6.90;3.92;;;24.90;99.90;;;;;;5071665;28;20040;-82
2023/07/28 12:55:22;;;;;;;4.10;3.17;;;25.00;99.90;;;;;;5087108;28;20039;-83
2023/07/28 12:57:48;;;;;;;5.10;4.60;;;25.00;99.90;;;;;;5089419;28;20079;-84
2023/07/28 13:00:15;;;;;;;5.20;2.78;;;25.10;99.90;;;;;;5087938;28;20137;-84
2023/07/28 13:02:44;;;;;;;3.63;3.03;;;25.30;99.90;;;;;;5072285;28;20444;-83
2023/07/28 13:05:12;;;;;;;2.85;2.60;;;25.20;99.90;;;;;;5073477;28;20064;-83
2023/07/28 13:07:38;;;;;;;3.25;2.78;;;25.20;99.90;;;;;;5085963;28;20036;-83
2023/07/28 13:10:09;;;;;;;4.63;3.17;;;25.30;99.90;;;;;;5064213;28;20047;-83
2023/07/28 13:12:38;;;;;;;3.22;2.60;;;25.30;99.90;;;;;;5068997;28;20068;-83
2023/07/28 13:15:07;;;;;;;5.78;3.15;;;25.40;99.90;;;;;;5072248;28;20044;-84
2023/07/28 13:17:32;;;;;;;5.05;4.28;;;25.40;99.90;;;;;;5052089;28;20047;-83
2023/07/28 13:19:58;;;;;;;3.22;2.53;;;25.40;99.90;;;;;;5071659;28;20111;-83
2023/07/28 13:22:26;;;;;;;3.97;3.10;;;25.40;99.90;;;;;;5035128;28;20070;-81
2023/07/28 13:24:52;;;;;;;3.40;3.10;;;25.50;99.90;;;;;;5044892;28;20511;-82
2023/07/28 13:27:17;;;;;;;3.72;3.42;;;25.50;99.90;;;;;;5048653;28;20059;-82
2023/07/28 13:29:43;;;;;;;6.45;3.30;;;25.40;99.90;;;;;;5032550;28;20842;-82
2023/07/28 13:32:22;;;;;;;4.53;3.42;;;25.50;99.90;;;;;;5047344;28;20124;-82
2023/07/28 13:34:48;;;;;;;4.93;3.60;;;25.60;99.90;;;;;;5047039;28;20164;-83
2023/07/28 13:37:14;;;;;;;6.13;3.58;;;25.40;99.90;;;;;;5024727;28;20123;-81
2023/07/28 13:39:40;;;;;;;5.80;2.92;;;25.20;99.90;;;;;;5047464;28;20133;-83
2023/07/28 13:42:06;;;;;;;3.45;2.72;;;25.10;99.90;;;;;;5045107;28;20040;-82
2023/07/28 13:44:33;;;;;;;6.68;2.88;;;24.90;99.90;;;;;;5042175;28;20048;-82
2023/07/28 13:47:19;;;;;;;4.55;2.60;;;24.90;99.90;;;;;;5041245;28;20398;-84
2023/07/28 13:50:02;;;;;;;4.75;3.10;;;25.00;99.90;;;;;;5051311;28;20496;-83
2023/07/28 13:52:27;;;;;;;4.20;2.95;;;25.20;99.90;;;;;;5027351;28;20056;-83
2023/07/28 13:54:55;;;;;;;2.90;2.55;;;25.30;99.90;;;;;;5047873;28;20094;-83
2023/07/28 13:57:51;;;;;;;4.63;2.60;;;25.20;99.90;;;;;;5062731;28;20036;-84
2023/07/28 14:01:02;;;;;;;5.00;3.10;;;25.40;99.90;;;;;;5063358;28;20057;-84
2023/07/28 14:03:27;;;;;;;4.35;2.88;;;25.20;99.90;;;;;;5032791;28;20402;-82
2023/07/28 14:05:53;;;;;;;6.03;3.15;;;25.30;99.90;;;;;;5065015;28;20044;-83
2023/07/28 14:08:19;;;;;;;4.97;2.90;;;25.30;99.90;;;;;;5026978;28;20047;-84
2023/07/28 14:10:49;;;;;;;8.07;3.55;;;25.40;99.90;;;;;;5066946;28;20055;-84
2023/07/28 14:13:25;;;;;;;5.55;3.67;;;25.50;99.90;;;;;;5026860;28;20033;-84
2023/07/28 14:15:53;;;;;;;;;;;25.60;99.90;;;;;;5039733;28;20044;-84